Bookmark and Share
Track history (hours):
 

Bonaria

Last reported at 2014-Apr-21 18:06 UTC. Time now 2014-Apr-23 09:52 UTC.
Position N 39°04' E 009°20'.

Length 213 m; draft 6.9 m.

Type: Ship. MMSI: 247322400.

NotesDate/timePositionNaut miles runAvg speedWind from/ knotsBaromVisibWave heightAir tempDewpointWater temp
2014-Apr-21 18:06N 39°04' E 009°20'1018.2
2014-Apr-21 17:33N 39°09' E 009°09'4 3.9
2014-Apr-21 16:33N 39°13' E 009°06'0 0.0
2014-Apr-21 15:33N 39°13' E 009°06'0 0.0
2014-Apr-21 14:33N 39°13' E 009°06'0 0.0
2014-Apr-21 13:32N 39°13' E 009°06'0 0.0
2014-Apr-21 12:33N 39°13' E 009°06'0 0.0
2014-Apr-21 11:32N 39°13' E 009°06'0 0.0
2014-Apr-21 10:33N 39°13' E 009°06'0 0.0
2014-Apr-21 09:33N 39°13' E 009°06'0 0.0
2014-Apr-21 08:33N 39°13' E 009°06'0 0.0
2014-Apr-21 07:33N 39°13' E 009°06'0 0.0
2014-Apr-21 06:33N 39°13' E 009°06'4 3.5
2014-Apr-21 05:33N 39°10' E 009°09'13 0.4
2014-Apr-19 18:10N 39°03' E 009°23'1118.6
2014-Apr-19 17:33N 39°09' E 009°10'5 5.0
2014-Apr-19 16:33N 39°13' E 009°06'0 0.0
2014-Apr-19 15:33N 39°13' E 009°06'0 0.0
2014-Apr-19 14:33N 39°13' E 009°06'0 0.0
2014-Apr-19 13:32N 39°13' E 009°06'0 0.0
2014-Apr-19 12:32N 39°13' E 009°06'0 0.0
2014-Apr-19 11:31N 39°13' E 009°06'0 0.0
2014-Apr-19 10:31N 39°13' E 009°06'0 0.0
2014-Apr-19 09:33N 39°13' E 009°06'0 0.0
2014-Apr-19 08:33N 39°13' E 009°06'5 5.0
2014-Apr-19 07:33N 39°09' E 009°11'1918.7
2014-Apr-19 06:33N 39°00' E 009°32'115 2.5
2014-Apr-17 08:09N 40°55' E 009°32'0 0.0
2014-Apr-17 07:33N 40°55' E 009°32'0 0.0
2014-Apr-17 06:33N 40°55' E 009°32'0 0.0
2014-Apr-17 05:33N 40°55' E 009°32'0 0.0
2014-Apr-17 04:33N 40°55' E 009°32'3 2.6
2014-Apr-17 03:32N 40°55' E 009°35'2 0.1
2014-Apr-15 21:06N 40°56' E 009°37'4 8.0
2014-Apr-15 20:33N 40°55' E 009°31'  
2014-Apr-13 06:30N 40°55' E 009°32'0 0.0
2014-Apr-13 05:33N 40°55' E 009°32'0 0.0
2014-Apr-13 04:33N 40°55' E 009°32'0 0.0
2014-Apr-11 19:32N 40°55' E 009°32'0 0.0
2014-Apr-11 18:10N 40°55' E 009°32'  

Dump ship's entire track history

sailing weather and tide predictions

Bonaria — ICUS — position and weather